sensor_id;sensor_type;location;lat;lon;timestamp;P1;durP1;ratioP1;P2;durP2;ratioP2
73283;SDS011;61519;60.050;18.582;2022-08-11T00:01:18;3.88;;;1.60;;
73283;SDS011;61519;60.050;18.582;2022-08-11T00:03:46;4.32;;;1.80;;
73283;SDS011;61519;60.050;18.582;2022-08-11T00:06:22;5.97;;;1.73;;
73283;SDS011;61519;60.050;18.582;2022-08-11T00:08:49;4.72;;;1.70;;
73283;SDS011;61519;60.050;18.582;2022-08-11T00:11:15;5.30;;;1.90;;
73283;SDS011;61519;60.050;18.582;2022-08-11T00:13:42;4.15;;;1.70;;
73283;SDS011;61519;60.050;18.582;2022-08-11T00:16:12;4.47;;;1.70;;
73283;SDS011;61519;60.050;18.582;2022-08-11T00:19:00;4.57;;;1.63;;
73283;SDS011;61519;60.050;18.582;2022-08-11T00:21:25;4.40;;;1.80;;
73283;SDS011;61519;60.050;18.582;2022-08-11T00:24:10;3.70;;;1.70;;
73283;SDS011;61519;60.050;18.582;2022-08-11T00:26:36;4.45;;;1.60;;
73283;SDS011;61519;60.050;18.582;2022-08-11T00:29:08;5.70;;;2.03;;
73283;SDS011;61519;60.050;18.582;2022-08-11T00:31:34;3.65;;;1.70;;
73283;SDS011;61519;60.050;18.582;2022-08-11T00:34:01;5.85;;;1.55;;
73283;SDS011;61519;60.050;18.582;2022-08-11T00:36:28;4.68;;;1.45;;
73283;SDS011;61519;60.050;18.582;2022-08-11T00:39:03;4.97;;;1.40;;
73283;SDS011;61519;60.050;18.582;2022-08-11T00:41:33;8.43;;;1.80;;
73283;SDS011;61519;60.050;18.582;2022-08-11T00:47:14;5.72;;;1.70;;
73283;SDS011;61519;60.050;18.582;2022-08-11T01:09:32;4.50;;;1.30;;
73283;SDS011;61519;60.050;18.582;2022-08-11T01:12:17;4.22;;;1.60;;
73283;SDS011;61519;60.050;18.582;2022-08-11T01:28:22;6.93;;;1.67;;
73283;SDS011;61519;60.050;18.582;2022-08-11T01:34:18;5.25;;;1.70;;
73283;SDS011;61519;60.050;18.582;2022-08-11T01:48:43;3.38;;;1.60;;
73283;SDS011;61519;60.050;18.582;2022-08-11T01:54:08;3.65;;;1.45;;
73283;SDS011;61519;60.050;18.582;2022-08-11T01:56:53;3.75;;;1.50;;
73283;SDS011;61519;60.050;18.582;2022-08-11T01:59:28;6.50;;;2.40;;
73283;SDS011;61519;60.050;18.582;2022-08-11T02:04:47;4.57;;;1.63;;
73283;SDS011;61519;60.050;18.582;2022-08-11T02:13:39;4.60;;;1.35;;
73283;SDS011;61519;60.050;18.582;2022-08-11T02:16:35;3.80;;;1.65;;
73283;SDS011;61519;60.050;18.582;2022-08-11T02:25:36;3.75;;;1.67;;
73283;SDS011;61519;60.050;18.582;2022-08-11T02:28:12;3.30;;;1.40;;
73283;SDS011;61519;60.050;18.582;2022-08-11T02:33:41;4.70;;;1.30;;
73283;SDS011;61519;60.050;18.582;2022-08-11T02:36:13;3.67;;;1.45;;
73283;SDS011;61519;60.050;18.582;2022-08-11T02:47:08;3.77;;;1.50;;
73283;SDS011;61519;60.050;18.582;2022-08-11T03:00:56;7.40;;;1.67;;
73283;SDS011;61519;60.050;18.582;2022-08-11T03:09:08;3.50;;;1.88;;
73283;SDS011;61519;60.050;18.582;2022-08-11T03:17:33;3.67;;;1.75;;
73283;SDS011;61519;60.050;18.582;2022-08-11T03:22:59;8.90;;;2.20;;
73283;SDS011;61519;60.050;18.582;2022-08-11T03:33:31;4.55;;;1.95;;
73283;SDS011;61519;60.050;18.582;2022-08-11T03:36:27;4.13;;;1.80;;
73283;SDS011;61519;60.050;18.582;2022-08-11T03:45:00;7.13;;;1.80;;
73283;SDS011;61519;60.050;18.582;2022-08-11T03:50:16;6.55;;;1.83;;
73283;SDS011;61519;60.050;18.582;2022-08-11T04:35:38;5.47;;;2.40;;
73283;SDS011;61519;60.050;18.582;2022-08-11T04:50:21;6.85;;;1.75;;
73283;SDS011;61519;60.050;18.582;2022-08-11T04:56:04;4.15;;;2.10;;
73283;SDS011;61519;60.050;18.582;2022-08-11T05:04:45;4.75;;;1.60;;
73283;SDS011;61519;60.050;18.582;2022-08-11T05:16:34;4.68;;;1.65;;
73283;SDS011;61519;60.050;18.582;2022-08-11T05:19:25;3.80;;;1.70;;
73283;SDS011;61519;60.050;18.582;2022-08-11T05:22:10;3.28;;;1.50;;
73283;SDS011;61519;60.050;18.582;2022-08-11T05:25:17;5.78;;;2.15;;
73283;SDS011;61519;60.050;18.582;2022-08-11T05:31:03;5.88;;;1.60;;
73283;SDS011;61519;60.050;18.582;2022-08-11T05:34:00;5.40;;;1.77;;
73283;SDS011;61519;60.050;18.582;2022-08-11T05:36:47;5.47;;;1.88;;
73283;SDS011;61519;60.050;18.582;2022-08-11T05:39:16;5.03;;;1.88;;
73283;SDS011;61519;60.050;18.582;2022-08-11T05:42:04;4.40;;;1.90;;
73283;SDS011;61519;60.050;18.582;2022-08-11T05:44:48;7.25;;;1.88;;
73283;SDS011;61519;60.050;18.582;2022-08-11T05:47:34;4.35;;;1.90;;
73283;SDS011;61519;60.050;18.582;2022-08-11T05:50:19;3.65;;;1.40;;
73283;SDS011;61519;60.050;18.582;2022-08-11T05:53:05;4.70;;;1.58;;
73283;SDS011;61519;60.050;18.582;2022-08-11T05:55:52;4.23;;;1.90;;
73283;SDS011;61519;60.050;18.582;2022-08-11T05:58:38;6.10;;;1.70;;
73283;SDS011;61519;60.050;18.582;2022-08-11T06:01:04;4.40;;;1.55;;
73283;SDS011;61519;60.050;18.582;2022-08-11T06:03:31;3.65;;;1.58;;
73283;SDS011;61519;60.050;18.582;2022-08-11T06:06:18;3.42;;;1.40;;
73283;SDS011;61519;60.050;18.582;2022-08-11T06:08:45;5.47;;;1.73;;
73283;SDS011;61519;60.050;18.582;2022-08-11T06:11:10;5.95;;;2.50;;
73283;SDS011;61519;60.050;18.582;2022-08-11T06:13:40;10.60;;;2.20;;
73283;SDS011;61519;60.050;18.582;2022-08-11T06:16:08;3.60;;;2.10;;
73283;SDS011;61519;60.050;18.582;2022-08-11T06:18:34;4.82;;;2.40;;
73283;SDS011;61519;60.050;18.582;2022-08-11T06:21:00;7.37;;;2.20;;
73283;SDS011;61519;60.050;18.582;2022-08-11T06:23:29;3.70;;;2.10;;
73283;SDS011;61519;60.050;18.582;2022-08-11T06:25:56;5.70;;;3.25;;
73283;SDS011;61519;60.050;18.582;2022-08-11T06:28:32;4.57;;;2.90;;
73283;SDS011;61519;60.050;18.582;2022-08-11T06:31:01;4.47;;;2.80;;
73283;SDS011;61519;60.050;18.582;2022-08-11T06:33:50;6.05;;;3.20;;
73283;SDS011;61519;60.050;18.582;2022-08-11T06:39:50;4.95;;;4.30;;
73283;SDS011;61519;60.050;18.582;2022-08-11T06:42:39;4.97;;;3.90;;
73283;SDS011;61519;60.050;18.582;2022-08-11T06:47:48;6.72;;;4.55;;
73283;SDS011;61519;60.050;18.582;2022-08-11T06:50:15;7.72;;;6.95;;
73283;SDS011;61519;60.050;18.582;2022-08-11T06:53:02;6.47;;;5.67;;
73283;SDS011;61519;60.050;18.582;2022-08-11T06:55:29;7.28;;;6.57;;
73283;SDS011;61519;60.050;18.582;2022-08-11T06:58:15;7.72;;;7.03;;
73283;SDS011;61519;60.050;18.582;2022-08-11T07:01:02;8.98;;;8.18;;
73283;SDS011;61519;60.050;18.582;2022-08-11T07:03:45;7.78;;;7.07;;
73283;SDS011;61519;60.050;18.582;2022-08-11T07:11:58;10.38;;;9.48;;
73283;SDS011;61519;60.050;18.582;2022-08-11T07:14:48;8.68;;;7.95;;
73283;SDS011;61519;60.050;18.582;2022-08-11T07:17:37;9.65;;;8.70;;
73283;SDS011;61519;60.050;18.582;2022-08-11T07:20:42;6.60;;;6.00;;
73283;SDS011;61519;60.050;18.582;2022-08-11T07:23:27;5.68;;;4.70;;
73283;SDS011;61519;60.050;18.582;2022-08-11T07:26:11;5.03;;;3.97;;
73283;SDS011;61519;60.050;18.582;2022-08-11T07:28:56;5.55;;;3.67;;
73283;SDS011;61519;60.050;18.582;2022-08-11T07:31:28;4.78;;;3.47;;
73283;SDS011;61519;60.050;18.582;2022-08-11T07:36:29;5.68;;;2.10;;
73283;SDS011;61519;60.050;18.582;2022-08-11T07:38:55;7.30;;;3.50;;
73283;SDS011;61519;60.050;18.582;2022-08-11T07:41:22;4.63;;;2.72;;
73283;SDS011;61519;60.050;18.582;2022-08-11T07:43:53;6.05;;;3.47;;
73283;SDS011;61519;60.050;18.582;2022-08-11T07:46:20;4.23;;;2.20;;
73283;SDS011;61519;60.050;18.582;2022-08-11T07:49:06;5.13;;;3.47;;
73283;SDS011;61519;60.050;18.582;2022-08-11T07:51:52;4.15;;;3.00;;
73283;SDS011;61519;60.050;18.582;2022-08-11T07:54:36;7.05;;;3.83;;
73283;SDS011;61519;60.050;18.582;2022-08-11T07:57:03;8.52;;;3.53;;
73283;SDS011;61519;60.050;18.582;2022-08-11T07:59:47;4.93;;;3.40;;
73283;SDS011;61519;60.050;18.582;2022-08-11T08:02:31;6.35;;;4.40;;
73283;SDS011;61519;60.050;18.582;2022-08-11T08:05:16;5.05;;;3.42;;
73283;SDS011;61519;60.050;18.582;2022-08-11T08:08:00;7.45;;;3.60;;
73283;SDS011;61519;60.050;18.582;2022-08-11T08:10:44;8.38;;;3.08;;
73283;SDS011;61519;60.050;18.582;2022-08-11T08:13:30;5.40;;;3.00;;
73283;SDS011;61519;60.050;18.582;2022-08-11T08:16:14;10.00;;;2.78;;
73283;SDS011;61519;60.050;18.582;2022-08-11T08:18:59;5.28;;;2.60;;
73283;SDS011;61519;60.050;18.582;2022-08-11T08:21:24;6.23;;;2.17;;
73283;SDS011;61519;60.050;18.582;2022-08-11T08:23:50;4.05;;;2.60;;
73283;SDS011;61519;60.050;18.582;2022-08-11T08:26:16;3.87;;;2.40;;
73283;SDS011;61519;60.050;18.582;2022-08-11T08:29:01;4.68;;;2.95;;
73283;SDS011;61519;60.050;18.582;2022-08-11T08:31:47;6.07;;;3.17;;
73283;SDS011;61519;60.050;18.582;2022-08-11T08:34:13;4.80;;;3.47;;
73283;SDS011;61519;60.050;18.582;2022-08-11T08:36:43;5.80;;;4.03;;
73283;SDS011;61519;60.050;18.582;2022-08-11T08:39:11;4.55;;;3.30;;
73283;SDS011;61519;60.050;18.582;2022-08-11T08:41:37;5.32;;;4.68;;
73283;SDS011;61519;60.050;18.582;2022-08-11T08:44:06;7.57;;;5.35;;
73283;SDS011;61519;60.050;18.582;2022-08-11T08:46:39;6.10;;;5.50;;
73283;SDS011;61519;60.050;18.582;2022-08-11T08:49:07;6.70;;;5.90;;
73283;SDS011;61519;60.050;18.582;2022-08-11T08:51:36;6.70;;;6.03;;
73283;SDS011;61519;60.050;18.582;2022-08-11T08:54:04;8.38;;;7.57;;
73283;SDS011;61519;60.050;18.582;2022-08-11T08:56:32;8.30;;;7.60;;
73283;SDS011;61519;60.050;18.582;2022-08-11T08:59:00;7.67;;;6.97;;
73283;SDS011;61519;60.050;18.582;2022-08-11T09:01:31;8.05;;;7.28;;
73283;SDS011;61519;60.050;18.582;2022-08-11T09:04:00;8.90;;;8.10;;
73283;SDS011;61519;60.050;18.582;2022-08-11T09:06:28;8.27;;;7.55;;
73283;SDS011;61519;60.050;18.582;2022-08-11T09:08:55;9.70;;;8.70;;
73283;SDS011;61519;60.050;18.582;2022-08-11T09:11:21;8.83;;;7.93;;
73283;SDS011;61519;60.050;18.582;2022-08-11T09:14:06;9.13;;;8.43;;
73283;SDS011;61519;60.050;18.582;2022-08-11T09:16:32;9.57;;;8.77;;
73283;SDS011;61519;60.050;18.582;2022-08-11T09:18:59;9.30;;;8.50;;
73283;SDS011;61519;60.050;18.582;2022-08-11T09:21:25;10.73;;;9.85;;
73283;SDS011;61519;60.050;18.582;2022-08-11T09:23:50;10.40;;;8.70;;
73283;SDS011;61519;60.050;18.582;2022-08-11T09:26:35;9.70;;;8.90;;
73283;SDS011;61519;60.050;18.582;2022-08-11T09:29:20;9.88;;;9.07;;
73283;SDS011;61519;60.050;18.582;2022-08-11T09:31:46;9.20;;;8.40;;
73283;SDS011;61519;60.050;18.582;2022-08-11T09:34:13;9.67;;;8.90;;
73283;SDS011;61519;60.050;18.582;2022-08-11T09:36:38;9.43;;;8.73;;
73283;SDS011;61519;60.050;18.582;2022-08-11T09:39:23;11.18;;;10.18;;
73283;SDS011;61519;60.050;18.582;2022-08-11T09:42:09;10.45;;;9.55;;
73283;SDS011;61519;60.050;18.582;2022-08-11T09:44:35;10.10;;;9.10;;
73283;SDS011;61519;60.050;18.582;2022-08-11T09:49:47;9.02;;;8.23;;
73283;SDS011;61519;60.050;18.582;2022-08-11T09:52:13;9.30;;;8.50;;
73283;SDS011;61519;60.050;18.582;2022-08-11T09:54:42;9.43;;;8.52;;
73283;SDS011;61519;60.050;18.582;2022-08-11T09:57:08;9.53;;;8.73;;
73283;SDS011;61519;60.050;18.582;2022-08-11T09:59:52;8.75;;;8.05;;
73283;SDS011;61519;60.050;18.582;2022-08-11T10:02:22;9.20;;;8.30;;
73283;SDS011;61519;60.050;18.582;2022-08-11T10:04:51;9.23;;;8.02;;
73283;SDS011;61519;60.050;18.582;2022-08-11T10:07:40;8.10;;;7.30;;
73283;SDS011;61519;60.050;18.582;2022-08-11T10:10:08;8.87;;;7.67;;
73283;SDS011;61519;60.050;18.582;2022-08-11T10:12:35;7.60;;;6.90;;
73283;SDS011;61519;60.050;18.582;2022-08-11T10:15:08;8.05;;;6.38;;
73283;SDS011;61519;60.050;18.582;2022-08-11T10:17:55;7.57;;;6.87;;
73283;SDS011;61519;60.050;18.582;2022-08-11T10:20:41;8.95;;;8.13;;
73283;SDS011;61519;60.050;18.582;2022-08-11T10:23:09;7.43;;;6.53;;
73283;SDS011;61519;60.050;18.582;2022-08-11T10:25:55;7.57;;;6.88;;
73283;SDS011;61519;60.050;18.582;2022-08-11T10:28:39;7.43;;;6.72;;
73283;SDS011;61519;60.050;18.582;2022-08-11T10:31:05;7.87;;;7.10;;
73283;SDS011;61519;60.050;18.582;2022-08-11T10:33:49;7.65;;;6.90;;
73283;SDS011;61519;60.050;18.582;2022-08-11T10:36:25;7.70;;;7.00;;
73283;SDS011;61519;60.050;18.582;2022-08-11T10:38:55;7.00;;;6.38;;
73283;SDS011;61519;60.050;18.582;2022-08-11T10:41:22;8.20;;;7.10;;
73283;SDS011;61519;60.050;18.582;2022-08-11T10:44:07;8.88;;;6.72;;
73283;SDS011;61519;60.050;18.582;2022-08-11T10:46:33;7.55;;;6.47;;
73283;SDS011;61519;60.050;18.582;2022-08-11T10:49:18;7.97;;;6.22;;
73283;SDS011;61519;60.050;18.582;2022-08-11T10:51:45;8.52;;;6.18;;
73283;SDS011;61519;60.050;18.582;2022-08-11T10:54:29;9.23;;;6.67;;
73283;SDS011;61519;60.050;18.582;2022-08-11T10:57:14;7.70;;;5.28;;
73283;SDS011;61519;60.050;18.582;2022-08-11T11:00:00;5.68;;;4.63;;
73283;SDS011;61519;60.050;18.582;2022-08-11T11:02:25;6.13;;;3.55;;
73283;SDS011;61519;60.050;18.582;2022-08-11T11:05:03;4.87;;;3.37;;
73283;SDS011;61519;60.050;18.582;2022-08-11T11:07:38;4.78;;;3.13;;
73283;SDS011;61519;60.050;18.582;2022-08-11T11:10:12;4.38;;;2.97;;
73283;SDS011;61519;60.050;18.582;2022-08-11T11:12:38;4.33;;;1.97;;
73283;SDS011;61519;60.050;18.582;2022-08-11T11:15:28;5.45;;;2.47;;
73283;SDS011;61519;60.050;18.582;2022-08-11T11:18:18;5.20;;;2.45;;
73283;SDS011;61519;60.050;18.582;2022-08-11T11:20:56;7.10;;;2.53;;
73283;SDS011;61519;60.050;18.582;2022-08-11T11:23:32;3.58;;;1.63;;
73283;SDS011;61519;60.050;18.582;2022-08-11T11:32:40;5.32;;;2.08;;
73283;SDS011;61519;60.050;18.582;2022-08-11T11:35:00;5.88;;;2.63;;
73283;SDS011;61519;60.050;18.582;2022-08-11T11:37:34;3.58;;;1.40;;
73283;SDS011;61519;60.050;18.582;2022-08-11T11:40:05;4.18;;;1.88;;
73283;SDS011;61519;60.050;18.582;2022-08-11T11:42:34;4.53;;;1.83;;
73283;SDS011;61519;60.050;18.582;2022-08-11T11:45:01;5.03;;;1.88;;
73283;SDS011;61519;60.050;18.582;2022-08-11T11:47:27;4.68;;;2.63;;
73283;SDS011;61519;60.050;18.582;2022-08-11T11:49:55;3.50;;;1.90;;
73283;SDS011;61519;60.050;18.582;2022-08-11T11:52:21;5.13;;;1.77;;
73283;SDS011;61519;60.050;18.582;2022-08-11T11:54:47;4.25;;;2.25;;
73283;SDS011;61519;60.050;18.582;2022-08-11T11:57:15;4.05;;;1.85;;
73283;SDS011;61519;60.050;18.582;2022-08-11T12:00:00;4.00;;;2.55;;
73283;SDS011;61519;60.050;18.582;2022-08-11T12:02:47;3.65;;;1.70;;
73283;SDS011;61519;60.050;18.582;2022-08-11T12:05:13;6.28;;;2.95;;
73283;SDS011;61519;60.050;18.582;2022-08-11T12:07:39;4.87;;;2.50;;
73283;SDS011;61519;60.050;18.582;2022-08-11T12:10:23;5.05;;;1.75;;
73283;SDS011;61519;60.050;18.582;2022-08-11T12:12:49;4.25;;;2.05;;
73283;SDS011;61519;60.050;18.582;2022-08-11T12:15:33;4.95;;;1.92;;
73283;SDS011;61519;60.050;18.582;2022-08-11T12:17:59;6.75;;;1.73;;
73283;SDS011;61519;60.050;18.582;2022-08-11T12:20:25;3.90;;;2.40;;
73283;SDS011;61519;60.050;18.582;2022-08-11T12:22:52;5.13;;;1.30;;
73283;SDS011;61519;60.050;18.582;2022-08-11T12:25:41;3.35;;;1.58;;
73283;SDS011;61519;60.050;18.582;2022-08-11T12:28:35;5.63;;;2.00;;
73283;SDS011;61519;60.050;18.582;2022-08-11T12:31:00;5.50;;;1.95;;
73283;SDS011;61519;60.050;18.582;2022-08-11T12:33:27;3.53;;;1.67;;
73283;SDS011;61519;60.050;18.582;2022-08-11T12:35:55;4.10;;;1.40;;
73283;SDS011;61519;60.050;18.582;2022-08-11T12:38:22;7.18;;;1.77;;
73283;SDS011;61519;60.050;18.582;2022-08-11T12:40:48;5.37;;;1.50;;
73283;SDS011;61519;60.050;18.582;2022-08-11T12:43:34;4.00;;;1.58;;
73283;SDS011;61519;60.050;18.582;2022-08-11T12:46:32;3.97;;;1.55;;
73283;SDS011;61519;60.050;18.582;2022-08-11T12:49:07;3.95;;;1.00;;
73283;SDS011;61519;60.050;18.582;2022-08-11T12:51:55;4.70;;;1.80;;
73283;SDS011;61519;60.050;18.582;2022-08-11T12:54:31;3.03;;;1.30;;
73283;SDS011;61519;60.050;18.582;2022-08-11T12:57:23;4.13;;;1.77;;
73283;SDS011;61519;60.050;18.582;2022-08-11T13:00:17;3.83;;;1.65;;
73283;SDS011;61519;60.050;18.582;2022-08-11T13:03:02;5.75;;;2.08;;
73283;SDS011;61519;60.050;18.582;2022-08-11T13:05:46;5.05;;;2.17;;
73283;SDS011;61519;60.050;18.582;2022-08-11T13:08:13;5.13;;;1.60;;
73283;SDS011;61519;60.050;18.582;2022-08-11T13:10:40;6.47;;;1.50;;
73283;SDS011;61519;60.050;18.582;2022-08-11T13:13:25;18.80;;;2.20;;
73283;SDS011;61519;60.050;18.582;2022-08-11T13:15:51;3.73;;;1.73;;
73283;SDS011;61519;60.050;18.582;2022-08-11T13:18:21;4.63;;;1.55;;
73283;SDS011;61519;60.050;18.582;2022-08-11T13:20:47;4.70;;;2.15;;
73283;SDS011;61519;60.050;18.582;2022-08-11T13:23:14;3.40;;;1.75;;
73283;SDS011;61519;60.050;18.582;2022-08-11T13:25:40;5.37;;;1.70;;
73283;SDS011;61519;60.050;18.582;2022-08-11T13:28:06;5.88;;;1.40;;
73283;SDS011;61519;60.050;18.582;2022-08-11T13:30:32;3.83;;;1.20;;
73283;SDS011;61519;60.050;18.582;2022-08-11T13:33:16;5.13;;;2.30;;
73283;SDS011;61519;60.050;18.582;2022-08-11T13:35:44;4.82;;;1.90;;
73283;SDS011;61519;60.050;18.582;2022-08-11T13:38:13;3.30;;;1.42;;
73283;SDS011;61519;60.050;18.582;2022-08-11T13:40:39;4.10;;;1.73;;
73283;SDS011;61519;60.050;18.582;2022-08-11T13:43:05;4.63;;;1.20;;
73283;SDS011;61519;60.050;18.582;2022-08-11T13:45:31;5.10;;;1.85;;
73283;SDS011;61519;60.050;18.582;2022-08-11T13:47:57;4.53;;;1.73;;
73283;SDS011;61519;60.050;18.582;2022-08-11T13:50:25;5.32;;;1.90;;
73283;SDS011;61519;60.050;18.582;2022-08-11T13:53:11;4.63;;;1.30;;
73283;SDS011;61519;60.050;18.582;2022-08-11T13:55:40;4.93;;;1.50;;
73283;SDS011;61519;60.050;18.582;2022-08-11T13:58:06;4.35;;;2.10;;
73283;SDS011;61519;60.050;18.582;2022-08-11T14:00:35;4.68;;;2.22;;
73283;SDS011;61519;60.050;18.582;2022-08-11T14:03:01;3.60;;;1.65;;
73283;SDS011;61519;60.050;18.582;2022-08-11T14:05:39;5.17;;;1.97;;
73283;SDS011;61519;60.050;18.582;2022-08-11T14:08:08;3.97;;;1.77;;
73283;SDS011;61519;60.050;18.582;2022-08-11T14:10:37;5.15;;;2.20;;
73283;SDS011;61519;60.050;18.582;2022-08-11T14:13:07;3.28;;;1.38;;
73283;SDS011;61519;60.050;18.582;2022-08-11T14:15:54;4.53;;;2.17;;
73283;SDS011;61519;60.050;18.582;2022-08-11T14:18:27;4.73;;;1.50;;
73283;SDS011;61519;60.050;18.582;2022-08-11T14:20:57;4.97;;;1.75;;
73283;SDS011;61519;60.050;18.582;2022-08-11T14:23:50;7.05;;;1.27;;
73283;SDS011;61519;60.050;18.582;2022-08-11T14:26:21;4.78;;;1.67;;
73283;SDS011;61519;60.050;18.582;2022-08-11T14:28:47;5.43;;;1.97;;
73283;SDS011;61519;60.050;18.582;2022-08-11T14:31:14;4.28;;;1.60;;
73283;SDS011;61519;60.050;18.582;2022-08-11T14:33:40;4.28;;;1.40;;
73283;SDS011;61519;60.050;18.582;2022-08-11T14:36:06;5.20;;;1.88;;
73283;SDS011;61519;60.050;18.582;2022-08-11T14:38:33;4.43;;;2.05;;
73283;SDS011;61519;60.050;18.582;2022-08-11T14:41:00;5.97;;;1.80;;
73283;SDS011;61519;60.050;18.582;2022-08-11T14:43:44;4.45;;;1.83;;
73283;SDS011;61519;60.050;18.582;2022-08-11T14:46:29;5.28;;;2.40;;
73283;SDS011;61519;60.050;18.582;2022-08-11T14:49:14;3.67;;;1.95;;
73283;SDS011;61519;60.050;18.582;2022-08-11T14:51:40;4.03;;;1.40;;
73283;SDS011;61519;60.050;18.582;2022-08-11T14:54:06;6.38;;;1.95;;
73283;SDS011;61519;60.050;18.582;2022-08-11T14:56:51;3.20;;;1.10;;
73283;SDS011;61519;60.050;18.582;2022-08-11T14:59:17;3.90;;;1.50;;
73283;SDS011;61519;60.050;18.582;2022-08-11T15:01:43;4.20;;;1.92;;
73283;SDS011;61519;60.050;18.582;2022-08-11T15:04:28;4.70;;;1.73;;
73283;SDS011;61519;60.050;18.582;2022-08-11T15:06:54;3.78;;;1.65;;
73283;SDS011;61519;60.050;18.582;2022-08-11T15:09:19;3.87;;;1.77;;
73283;SDS011;61519;60.050;18.582;2022-08-11T15:11:45;3.87;;;1.30;;
73283;SDS011;61519;60.050;18.582;2022-08-11T15:14:29;4.00;;;2.13;;
73283;SDS011;61519;60.050;18.582;2022-08-11T15:17:15;6.95;;;2.30;;
73283;SDS011;61519;60.050;18.582;2022-08-11T15:19:42;4.30;;;2.20;;
73283;SDS011;61519;60.050;18.582;2022-08-11T15:22:27;6.20;;;2.30;;
73283;SDS011;61519;60.050;18.582;2022-08-11T15:25:11;4.30;;;1.98;;
73283;SDS011;61519;60.050;18.582;2022-08-11T15:27:36;4.90;;;2.63;;
73283;SDS011;61519;60.050;18.582;2022-08-11T15:30:21;5.00;;;2.22;;
73283;SDS011;61519;60.050;18.582;2022-08-11T15:33:07;3.50;;;1.37;;
73283;SDS011;61519;60.050;18.582;2022-08-11T15:35:52;7.97;;;1.80;;
73283;SDS011;61519;60.050;18.582;2022-08-11T15:38:41;3.92;;;1.88;;
73283;SDS011;61519;60.050;18.582;2022-08-11T15:41:12;5.30;;;2.15;;
73283;SDS011;61519;60.050;18.582;2022-08-11T15:43:58;5.55;;;1.98;;
73283;SDS011;61519;60.050;18.582;2022-08-11T15:49:17;4.55;;;1.30;;
73283;SDS011;61519;60.050;18.582;2022-08-11T15:51:48;3.92;;;1.60;;
73283;SDS011;61519;60.050;18.582;2022-08-11T15:54:17;3.45;;;1.38;;
73283;SDS011;61519;60.050;18.582;2022-08-11T15:56:45;4.55;;;1.83;;
73283;SDS011;61519;60.050;18.582;2022-08-11T15:59:13;4.33;;;1.77;;
73283;SDS011;61519;60.050;18.582;2022-08-11T16:02:00;6.57;;;1.55;;
73283;SDS011;61519;60.050;18.582;2022-08-11T16:04:40;4.18;;;1.67;;
73283;SDS011;61519;60.050;18.582;2022-08-11T16:09:39;7.25;;;1.70;;
73283;SDS011;61519;60.050;18.582;2022-08-11T16:12:12;5.00;;;1.70;;
73283;SDS011;61519;60.050;18.582;2022-08-11T16:14:41;6.28;;;2.03;;
73283;SDS011;61519;60.050;18.582;2022-08-11T16:17:27;4.20;;;1.80;;
73283;SDS011;61519;60.050;18.582;2022-08-11T16:20:24;21.60;;;3.00;;
73283;SDS011;61519;60.050;18.582;2022-08-11T16:22:51;4.57;;;1.83;;
73283;SDS011;61519;60.050;18.582;2022-08-11T16:25:20;5.60;;;2.03;;
73283;SDS011;61519;60.050;18.582;2022-08-11T16:27:48;3.33;;;1.42;;
73283;SDS011;61519;60.050;18.582;2022-08-11T16:30:16;11.70;;;1.73;;
73283;SDS011;61519;60.050;18.582;2022-08-11T16:32:43;11.55;;;2.25;;
73283;SDS011;61519;60.050;18.582;2022-08-11T16:38:23;31.40;;;3.50;;
73283;SDS011;61519;60.050;18.582;2022-08-11T16:40:59;9.88;;;2.03;;
73283;SDS011;61519;60.050;18.582;2022-08-11T16:43:28;4.80;;;1.40;;
73283;SDS011;61519;60.050;18.582;2022-08-11T16:46:14;3.47;;;1.33;;
73283;SDS011;61519;60.050;18.582;2022-08-11T16:49:01;4.00;;;1.52;;
73283;SDS011;61519;60.050;18.582;2022-08-11T16:51:28;4.20;;;1.70;;
73283;SDS011;61519;60.050;18.582;2022-08-11T16:53:55;4.70;;;1.95;;
73283;SDS011;61519;60.050;18.582;2022-08-11T16:56:26;5.55;;;1.55;;
73283;SDS011;61519;60.050;18.582;2022-08-11T16:59:07;4.28;;;2.15;;
73283;SDS011;61519;60.050;18.582;2022-08-11T17:01:38;4.50;;;1.55;;
73283;SDS011;61519;60.050;18.582;2022-08-11T17:07:24;4.72;;;1.83;;
73283;SDS011;61519;60.050;18.582;2022-08-11T17:10:24;2.77;;;1.10;;
73283;SDS011;61519;60.050;18.582;2022-08-11T17:13:11;4.82;;;1.95;;
73283;SDS011;61519;60.050;18.582;2022-08-11T17:15:49;4.07;;;1.40;;
73283;SDS011;61519;60.050;18.582;2022-08-11T17:18:44;6.50;;;2.03;;
73283;SDS011;61519;60.050;18.582;2022-08-11T17:21:24;4.10;;;2.13;;
73283;SDS011;61519;60.050;18.582;2022-08-11T17:26:41;4.43;;;2.10;;
73283;SDS011;61519;60.050;18.582;2022-08-11T17:29:33;5.00;;;1.42;;
73283;SDS011;61519;60.050;18.582;2022-08-11T17:32:04;5.88;;;2.33;;
73283;SDS011;61519;60.050;18.582;2022-08-11T17:34:51;3.85;;;1.83;;
73283;SDS011;61519;60.050;18.582;2022-08-11T17:37:42;6.37;;;2.20;;
73283;SDS011;61519;60.050;18.582;2022-08-11T17:40:10;4.80;;;1.70;;
73283;SDS011;61519;60.050;18.582;2022-08-11T17:42:36;3.60;;;1.70;;
73283;SDS011;61519;60.050;18.582;2022-08-11T17:45:21;5.10;;;1.30;;
73283;SDS011;61519;60.050;18.582;2022-08-11T17:48:25;4.95;;;1.77;;
73283;SDS011;61519;60.050;18.582;2022-08-11T17:50:54;4.63;;;1.30;;
73283;SDS011;61519;60.050;18.582;2022-08-11T17:53:23;5.15;;;2.25;;
73283;SDS011;61519;60.050;18.582;2022-08-11T17:56:08;4.18;;;1.90;;
73283;SDS011;61519;60.050;18.582;2022-08-11T17:58:52;3.45;;;1.30;;
73283;SDS011;61519;60.050;18.582;2022-08-11T18:01:38;5.75;;;1.88;;
73283;SDS011;61519;60.050;18.582;2022-08-11T18:04:04;4.17;;;1.97;;
73283;SDS011;61519;60.050;18.582;2022-08-11T18:06:31;3.83;;;1.73;;
73283;SDS011;61519;60.050;18.582;2022-08-11T18:08:59;3.70;;;1.50;;
73283;SDS011;61519;60.050;18.582;2022-08-11T18:11:43;5.70;;;1.83;;
73283;SDS011;61519;60.050;18.582;2022-08-11T18:14:28;4.78;;;1.65;;
73283;SDS011;61519;60.050;18.582;2022-08-11T18:17:13;4.13;;;1.77;;
73283;SDS011;61519;60.050;18.582;2022-08-11T18:19:57;4.05;;;1.63;;
73283;SDS011;61519;60.050;18.582;2022-08-11T18:22:42;5.03;;;1.98;;
73283;SDS011;61519;60.050;18.582;2022-08-11T18:25:31;4.88;;;1.50;;
73283;SDS011;61519;60.050;18.582;2022-08-11T18:28:31;3.80;;;1.70;;
73283;SDS011;61519;60.050;18.582;2022-08-11T18:31:22;3.23;;;1.43;;
73283;SDS011;61519;60.050;18.582;2022-08-11T18:34:09;4.03;;;1.92;;
73283;SDS011;61519;60.050;18.582;2022-08-11T18:36:58;5.65;;;1.70;;
73283;SDS011;61519;60.050;18.582;2022-08-11T18:39:46;6.22;;;2.08;;
73283;SDS011;61519;60.050;18.582;2022-08-11T18:42:33;4.85;;;2.10;;
73283;SDS011;61519;60.050;18.582;2022-08-11T18:45:18;5.83;;;1.60;;
73283;SDS011;61519;60.050;18.582;2022-08-11T18:48:05;3.50;;;1.50;;
73283;SDS011;61519;60.050;18.582;2022-08-11T18:50:54;7.35;;;1.88;;
73283;SDS011;61519;60.050;18.582;2022-08-11T18:53:39;5.07;;;1.60;;
73283;SDS011;61519;60.050;18.582;2022-08-11T18:56:25;5.90;;;2.10;;
73283;SDS011;61519;60.050;18.582;2022-08-11T18:59:10;4.83;;;1.70;;
73283;SDS011;61519;60.050;18.582;2022-08-11T19:01:56;5.75;;;1.70;;
73283;SDS011;61519;60.050;18.582;2022-08-11T19:04:40;5.28;;;2.10;;
73283;SDS011;61519;60.050;18.582;2022-08-11T19:07:24;6.28;;;2.33;;
73283;SDS011;61519;60.050;18.582;2022-08-11T19:10:08;7.28;;;2.22;;
73283;SDS011;61519;60.050;18.582;2022-08-11T19:12:53;5.93;;;1.63;;
73283;SDS011;61519;60.050;18.582;2022-08-11T19:15:39;5.03;;;1.80;;
73283;SDS011;61519;60.050;18.582;2022-08-11T19:18:23;6.47;;;2.42;;
73283;SDS011;61519;60.050;18.582;2022-08-11T19:21:08;3.50;;;1.67;;
73283;SDS011;61519;60.050;18.582;2022-08-11T19:23:54;4.72;;;1.80;;